Time;durP1;ratioP1;P1;durP2;ratioP2;P2;SDS_P1;SDS_P2;PMS_P1;PMS_P2;Temp;Humidity;BMP_temperature;BMP_pressure;BME280_temperature;BME280_humidity;BME280_pressure;Samples;Min_cycle;Max_cycle;Signal;HPM_P1;HPM_P2
2021/05/18 00:00:13;;;;;;;1.90;0.30;;;;;;;8.38;98.82;95496.16;4389632;32;20634;-75
2021/05/18 00:02:38;;;;;;;0.70;0.25;;;;;;;8.46;97.77;95493.12;4389344;32;20214;-75
2021/05/18 00:05:04;;;;;;;0.80;0.28;;;;;;;8.32;98.53;95499.06;4389293;32;20222;-75
2021/05/18 00:07:29;;;;;;;1.00;0.20;;;;;;;8.36;99.01;95497.94;4389162;32;20647;-75
2021/05/18 00:12:37;;;;;;;1.10;0.30;;;;;;;8.45;99.76;95502.63;4387783;32;20692;-75
2021/05/18 00:15:02;;;;;;;1.10;0.35;;;;;;;8.32;99.33;95493.88;4389255;32;20594;-75
2021/05/18 00:17:28;;;;;;;1.00;0.30;;;;;;;8.11;100.00;95505.44;4388641;32;20350;-75
2021/05/18 00:19:53;;;;;;;0.70;0.27;;;;;;;8.02;100.00;95501.66;4389057;32;20209;-75
2021/05/18 00:22:18;;;;;;;0.20;0.10;;;;;;;8.04;100.00;95504.97;4389213;32;20588;-75
2021/05/18 00:24:43;;;;;;;2.30;0.20;;;;;;;8.11;100.00;95503.69;4389457;32;20239;-75
2021/05/18 00:27:08;;;;;;;0.30;0.17;;;;;;;8.08;100.00;95496.13;4388731;32;20221;-75
2021/05/18 00:29:33;;;;;;;0.30;0.20;;;;;;;8.12;99.85;95495.06;4388620;32;20225;-75
2021/05/18 00:31:59;;;;;;;0.60;0.20;;;;;;;8.05;99.82;95503.22;4389047;32;20218;-75
2021/05/18 00:34:24;;;;;;;0.55;0.22;;;;;;;8.10;100.00;95502.03;4389083;32;20210;-75
2021/05/18 00:36:49;;;;;;;1.20;0.30;;;;;;;8.13;99.91;95513.94;4388626;32;20318;-75
2021/05/18 00:39:15;;;;;;;0.28;0.20;;;;;;;8.17;99.73;95510.25;4388844;32;20214;-74
2021/05/18 00:41:40;;;;;;;0.40;0.20;;;;;;;8.16;100.00;95508.59;4388831;32;20226;-74
2021/05/18 00:44:06;;;;;;;0.35;0.15;;;;;;;8.03;100.00;95510.22;4388790;32;20210;-74
2021/05/18 00:46:31;;;;;;;1.20;0.30;;;;;;;7.85;100.00;95512.91;4388275;32;20610;-75
2021/05/18 00:48:56;;;;;;;0.75;0.28;;;;;;;7.86;100.00;95506.84;4388364;32;20221;-75
2021/05/18 00:51:21;;;;;;;0.90;0.20;;;;;;;7.94;100.00;95511.56;4388584;32;20573;-74
2021/05/18 00:53:46;;;;;;;0.60;0.30;;;;;;;8.02;100.00;95516.31;4388734;32;20816;-74
2021/05/18 00:58:55;;;;;;;0.52;0.30;;;;;;;7.97;100.00;95527.72;4388174;32;20245;-74
2021/05/18 01:01:21;;;;;;;0.43;0.28;;;;;;;7.94;100.00;95516.72;4388403;32;20281;-74
2021/05/18 01:03:46;;;;;;;0.50;0.20;;;;;;;7.96;100.00;95520.03;4388384;32;20240;-74
2021/05/18 01:06:30;;;;;;;0.20;0.20;;;;;;;7.98;100.00;95531.12;4388079;32;20210;-74
2021/05/18 01:08:55;;;;;;;1.87;0.30;;;;;;;7.88;100.00;95535.94;4388347;32;20217;-75
2021/05/18 01:11:22;;;;;;;0.80;0.40;;;;;;;7.88;100.00;95541.09;4388213;32;20217;-75
2021/05/18 01:13:47;;;;;;;0.75;0.40;;;;;;;7.82;100.00;95540.59;4388241;32;20210;-75
2021/05/18 01:16:12;;;;;;;0.37;0.23;;;;;;;7.82;100.00;95535.44;4387779;32;20341;-74
2021/05/18 01:18:38;;;;;;;2.22;0.57;;;;;;;7.80;100.00;95527.81;4388078;32;20225;-74
2021/05/18 01:21:03;;;;;;;2.67;0.63;;;;;;;7.77;100.00;95535.72;4388183;32;20228;-74
2021/05/18 01:23:28;;;;;;;1.87;0.33;;;;;;;7.83;100.00;95531.97;4388202;32;20205;-74
2021/05/18 01:25:53;;;;;;;0.90;0.30;;;;;;;7.97;100.00;95514.81;4387633;32;20240;-75
2021/05/18 01:28:18;;;;;;;0.50;0.28;;;;;;;7.91;100.00;95514.31;4373770;32;20229;-75
2021/05/18 01:30:43;;;;;;;1.65;0.32;;;;;;;7.95;100.00;95513.22;4387762;32;20233;-74
2021/05/18 01:33:08;;;;;;;0.90;0.30;;;;;;;7.86;100.00;95506.00;4387815;32;20218;-74
2021/05/18 01:35:33;;;;;;;0.47;0.20;;;;;;;7.87;100.00;95503.34;4387948;32;20255;-75
2021/05/18 01:38:00;;;;;;;0.35;0.28;;;;;;;7.88;100.00;95497.25;4387642;32;20299;-75
2021/05/18 01:42:58;;;;;;;0.55;0.37;;;;;;;7.68;100.00;95503.56;4387998;32;20221;-74
2021/05/18 01:45:23;;;;;;;0.62;0.30;;;;;;;7.68;100.00;95497.56;4387958;32;20507;-74
2021/05/18 01:47:51;;;;;;;0.40;0.30;;;;;;;7.72;100.00;95512.78;4387817;32;20570;-75
2021/05/18 01:50:16;;;;;;;0.70;0.30;;;;;;;7.71;100.00;95515.41;4387891;32;20221;-75
2021/05/18 01:52:41;;;;;;;0.30;0.20;;;;;;;7.59;100.00;95516.09;4387404;32;20275;-77
2021/05/18 01:55:06;;;;;;;6.80;0.50;;;;;;;7.52;100.00;95520.75;4387576;32;20222;-74
2021/05/18 01:57:32;;;;;;;0.70;0.23;;;;;;;7.54;100.00;95525.84;4387418;32;20595;-75
2021/05/18 01:59:57;;;;;;;0.85;0.40;;;;;;;7.46;100.00;95521.94;4387761;32;20244;-75
2021/05/18 02:02:22;;;;;;;1.90;0.37;;;;;;;7.35;100.00;95532.00;4373839;32;20255;-75
2021/05/18 02:04:47;;;;;;;0.70;0.32;;;;;;;7.31;100.00;95527.94;4387677;32;20217;-75
2021/05/18 02:07:12;;;;;;;1.15;0.15;;;;;;;7.28;100.00;95534.06;4387460;32;20217;-74
2021/05/18 02:09:37;;;;;;;0.20;0.10;;;;;;;7.29;100.00;95537.47;4387646;32;20244;-74
2021/05/18 02:12:03;;;;;;;1.37;0.20;;;;;;;7.26;100.00;95548.75;4387539;32;20209;-74
2021/05/18 02:14:29;;;;;;;0.50;0.33;;;;;;;7.32;100.00;95542.47;4387419;32;20237;-74
2021/05/18 02:17:01;;;;;;;0.90;0.50;;;;;;;7.40;100.00;95540.28;4387307;32;20256;-74
2021/05/18 02:19:41;;;;;;;1.33;0.60;;;;;;;7.42;100.00;95538.47;4387498;32;20252;-74
2021/05/18 02:22:23;;;;;;;3.25;0.80;;;;;;;7.36;100.00;95540.56;4387225;32;20218;-75
2021/05/18 02:25:10;;;;;;;1.90;0.40;;;;;;;7.35;100.00;95539.72;4387601;32;20221;-74
2021/05/18 02:27:34;;;;;;;1.87;0.90;;;;;;;7.31;100.00;95540.81;4386812;32;20561;-75
2021/05/18 02:29:59;;;;;;;1.42;0.60;;;;;;;7.34;100.00;95540.66;4387687;32;20649;-74
2021/05/18 02:32:24;;;;;;;2.60;0.70;;;;;;;7.38;100.00;95547.28;4387236;32;20225;-74
2021/05/18 02:34:49;;;;;;;1.42;0.50;;;;;;;7.37;100.00;95548.19;4387356;32;20318;-74
2021/05/18 02:37:14;;;;;;;7.82;0.40;;;;;;;7.34;100.00;95560.41;4386957;32;20410;-74
2021/05/18 02:39:39;;;;;;;2.10;0.40;;;;;;;7.34;100.00;95561.25;4388303;32;20264;-75
2021/05/18 02:42:05;;;;;;;0.35;0.30;;;;;;;7.29;100.00;95563.22;4390792;32;20538;-74
2021/05/18 02:44:38;;;;;;;0.10;0.10;;;;;;;7.21;100.00;95562.81;4376655;32;20291;-74
2021/05/18 02:49:47;;;;;;;0.60;0.20;;;;;;;7.15;100.00;95556.22;4390369;32;20236;-75
2021/05/18 02:52:12;;;;;;;0.90;0.28;;;;;;;7.12;100.00;95564.13;4390223;32;20214;-76
2021/05/18 02:54:37;;;;;;;0.77;0.27;;;;;;;7.15;100.00;95566.53;4390328;32;20248;-75
2021/05/18 02:57:05;;;;;;;1.70;0.30;;;;;;;7.10;100.00;95572.84;4390022;32;20331;-75
2021/05/18 02:59:30;;;;;;;0.37;0.20;;;;;;;7.04;100.00;95571.41;4389904;32;20316;-75
2021/05/18 03:01:57;;;;;;;0.67;0.33;;;;;;;7.10;100.00;95567.69;4389999;32;20222;-75
2021/05/18 03:04:23;;;;;;;0.20;0.10;;;;;;;7.13;100.00;95568.38;4390085;32;20225;-74
2021/05/18 03:06:49;;;;;;;0.50;0.30;;;;;;;7.12;100.00;95568.41;4376070;32;20248;-74
2021/05/18 03:09:14;;;;;;;0.45;0.37;;;;;;;7.16;100.00;95554.50;4390182;32;20225;-74
2021/05/18 03:11:39;;;;;;;1.20;0.40;;;;;;;7.07;100.00;95558.37;4389867;32;20226;-75
2021/05/18 03:14:04;;;;;;;2.30;0.30;;;;;;;7.07;100.00;95552.38;4389869;32;20217;-75
2021/05/18 03:16:29;;;;;;;5.07;0.40;;;;;;;6.99;100.00;95550.22;4389609;32;20279;-75
2021/05/18 03:18:54;;;;;;;2.75;0.20;;;;;;;6.98;100.00;95546.00;4389882;32;20340;-75
2021/05/18 03:21:20;;;;;;;0.90;0.40;;;;;;;6.94;100.00;95550.47;4389713;32;20288;-75
2021/05/18 03:23:45;;;;;;;0.25;0.22;;;;;;;7.01;100.00;95553.56;4390142;32;20528;-74
2021/05/18 03:26:10;;;;;;;0.73;0.30;;;;;;;7.17;100.00;95556.16;4389736;32;20218;-75
2021/05/18 03:28:35;;;;;;;52.17;2.12;;;;;;;7.24;100.00;95549.78;4389968;32;20268;-75
2021/05/18 03:36:09;;;;;;;0.77;0.40;;;;;;;7.14;100.00;95564.87;4389360;32;20666;-75
